createdAt,value
2019-03-29T00:00:38.325Z,6.97
2019-03-29T00:01:38.284Z,7.02
2019-03-29T00:02:38.275Z,7.06
2019-03-29T00:03:38.257Z,6.99
2019-03-29T00:04:38.267Z,6.97
2019-03-29T00:05:38.238Z,7.02
2019-03-29T00:06:38.313Z,7.03
2019-03-29T00:07:39.893Z,7.03
2019-03-29T00:08:38.215Z,7.05
2019-03-29T00:09:38.214Z,6.99
2019-03-29T00:10:38.188Z,7.00
2019-03-29T00:11:38.220Z,7.00
2019-03-29T00:12:38.182Z,7.02
2019-03-29T00:13:38.153Z,7.03
2019-03-29T00:14:38.158Z,6.97
2019-03-29T00:15:38.135Z,7.02
2019-03-29T00:16:38.125Z,7.00
2019-03-29T00:17:38.130Z,7.00
2019-03-29T00:18:38.097Z,6.92
2019-03-29T00:19:38.091Z,6.96
2019-03-29T00:20:38.079Z,6.93
2019-03-29T00:21:39.047Z,6.89
2019-03-29T00:22:38.089Z,6.87
2019-03-29T00:23:38.121Z,6.87
2019-03-29T00:24:38.052Z,6.88
2019-03-29T00:25:38.023Z,6.89
2019-03-29T00:26:38.011Z,6.84
2019-03-29T00:27:38.022Z,6.75
2019-03-29T00:28:37.996Z,6.87
2019-03-29T00:29:37.984Z,6.81
2019-03-29T05:00:37.314Z,3.77
2019-03-29T05:01:37.311Z,3.83
2019-03-29T05:02:37.286Z,3.91
2019-03-29T05:03:37.273Z,3.99
2019-03-29T05:04:37.267Z,4.01
2019-03-29T05:05:37.249Z,4.17
2019-03-29T05:06:37.361Z,4.20
2019-03-29T05:07:44.776Z,4.30
2019-03-29T05:08:37.243Z,4.24
2019-03-29T05:09:37.209Z,4.35
2019-03-29T05:10:37.198Z,4.38
2019-03-29T05:11:37.190Z,4.41
2019-03-29T05:12:37.195Z,4.45
2019-03-29T05:13:37.180Z,4.52
2019-03-29T05:14:37.164Z,4.55
2019-03-29T05:15:37.159Z,4.53
2019-03-29T05:16:37.156Z,4.68
2019-03-29T05:17:37.123Z,4.68
2019-03-29T05:18:37.122Z,4.73
2019-03-29T05:19:37.107Z,4.74
2019-03-29T05:20:37.095Z,4.77
2019-03-29T05:21:37.115Z,4.89
2019-03-29T05:22:37.082Z,4.92
2019-03-29T05:23:37.062Z,4.94
2019-03-29T05:24:37.052Z,4.89
2019-03-29T05:25:37.048Z,4.94
2019-03-29T05:26:37.033Z,5.00
2019-03-29T05:27:37.034Z,5.10
2019-03-29T05:28:37.050Z,5.07
2019-03-29T05:29:36.994Z,5.10
2019-03-29T05:30:36.986Z,5.07
2019-03-29T05:31:36.977Z,5.14
2019-03-29T05:32:36.994Z,5.23
2019-03-29T05:33:36.957Z,5.18
2019-03-29T05:34:36.947Z,5.33
2019-03-29T05:35:36.943Z,5.28
2019-03-29T05:36:36.920Z,5.36
2019-03-29T05:37:36.930Z,5.33
2019-03-29T05:38:36.902Z,5.48
2019-03-29T05:39:36.891Z,5.48
2019-03-29T05:40:36.884Z,5.53
2019-03-29T05:41:36.865Z,5.54
2019-03-29T05:42:36.854Z,5.64
2019-03-29T05:43:36.860Z,5.65
2019-03-29T05:44:36.841Z,5.72
2019-03-29T05:45:36.832Z,6.14
2019-03-29T05:46:36.819Z,7.17
2019-03-29T05:47:36.835Z,8.42
2019-03-29T05:48:36.790Z,9.39
2019-03-29T05:49:36.779Z,10.23
2019-03-29T05:50:37.038Z,11.05
2019-03-29T05:51:45.057Z,11.63
2019-03-29T05:53:57.289Z,12.82
2019-03-29T05:56:37.544Z,14.29
2019-03-29T05:58:46.371Z,15.24
2019-03-29T06:00:55.176Z,15.98
2019-03-29T06:01:55.168Z,16.36
2019-03-29T06:02:55.167Z,16.65
2019-03-29T06:03:55.159Z,16.94
2019-03-29T06:04:55.135Z,17.09
2019-03-29T06:05:55.122Z,17.01
2019-03-29T06:06:55.121Z,16.79
2019-03-29T06:07:55.113Z,16.66
2019-03-29T06:08:55.109Z,16.32
2019-03-29T06:09:55.078Z,16.04
2019-03-29T06:10:55.070Z,16.23
2019-03-29T06:11:55.066Z,16.58
2019-03-29T06:12:55.050Z,17.08
2019-03-29T06:13:55.041Z,17.76
2019-03-29T06:14:55.039Z,18.41
2019-03-29T06:15:55.091Z,19.15
2019-03-29T06:16:55.009Z,19.31
2019-03-29T06:17:54.999Z,19.58
2019-03-29T06:18:55.031Z,19.99
2019-03-29T06:19:54.990Z,20.41
2019-03-29T06:20:54.966Z,20.62
2019-03-29T06:21:54.993Z,20.81
2019-03-29T06:22:54.939Z,20.87
2019-03-29T06:23:54.941Z,20.97
2019-03-29T06:24:54.941Z,20.92
2019-03-29T06:25:54.911Z,20.82
2019-03-29T06:26:54.911Z,20.90
2019-03-29T06:27:54.891Z,21.22
2019-03-29T06:28:54.911Z,21.55
2019-03-29T06:29:54.867Z,21.88
2019-03-29T06:30:54.880Z,22.11
2019-03-29T06:31:54.849Z,22.15
2019-03-29T06:32:54.838Z,22.08
2019-03-29T06:33:54.844Z,22.08
2019-03-29T06:34:54.826Z,22.14
2019-03-29T06:35:54.829Z,22.13
2019-03-29T06:36:54.795Z,22.14
2019-03-29T06:38:03.330Z,21.99
2019-03-29T06:39:02.301Z,21.64
2019-03-29T06:40:03.566Z,20.97
2019-03-29T06:41:03.745Z,20.03
2019-03-29T06:42:02.303Z,19.29
2019-03-29T06:42:54.728Z,18.52
2019-03-29T06:43:54.714Z,17.85
2019-03-29T06:44:54.704Z,17.39
2019-03-29T06:45:54.698Z,16.91
2019-03-29T06:46:54.723Z,16.46
2019-03-29T06:47:54.700Z,16.00
2019-03-29T06:48:54.673Z,15.67
2019-03-29T06:49:54.660Z,15.42
2019-03-29T06:50:54.647Z,15.06
2019-03-29T06:51:54.637Z,14.78
2019-03-29T06:52:54.743Z,14.55
2019-03-29T06:53:54.616Z,14.41
2019-03-29T06:54:54.609Z,14.20
2019-03-29T06:55:54.591Z,14.36
2019-03-29T06:56:54.605Z,14.45
2019-03-29T06:57:54.570Z,14.48
2019-03-29T06:58:54.562Z,14.77
2019-03-29T06:59:54.565Z,15.15
2019-03-29T07:00:54.541Z,15.11
2019-03-29T07:01:54.527Z,15.07
2019-03-29T07:02:54.529Z,14.91
2019-03-29T07:03:54.500Z,14.82
2019-03-29T07:04:54.493Z,14.94
2019-03-29T07:05:54.483Z,14.85
2019-03-29T07:06:54.484Z,14.63
2019-03-29T07:07:54.500Z,14.48
2019-03-29T07:08:54.451Z,14.35
2019-03-29T07:09:54.439Z,14.33
2019-03-29T07:10:54.438Z,14.32
2019-03-29T07:11:54.426Z,14.22
2019-03-29T07:12:56.366Z,14.23
2019-03-29T07:13:57.650Z,14.11
2019-03-29T07:14:54.400Z,14.08
2019-03-29T07:15:54.374Z,14.08
2019-03-29T07:16:54.366Z,13.97
2019-03-29T07:17:54.354Z,13.96
2019-03-29T07:18:54.365Z,13.90
2019-03-29T07:19:54.358Z,13.95
2019-03-29T07:20:54.326Z,13.95
2019-03-29T07:21:54.316Z,13.97
2019-03-29T07:22:54.304Z,13.92
2019-03-29T07:23:54.288Z,13.97
2019-03-29T07:24:54.320Z,14.15
2019-03-29T07:25:56.452Z,14.48
2019-03-29T07:26:54.258Z,14.91
2019-03-29T07:27:54.244Z,15.43
2019-03-29T07:28:54.237Z,15.68
2019-03-29T07:29:54.227Z,16.00
2019-03-29T07:30:54.234Z,16.10
2019-03-29T07:31:54.210Z,16.20
2019-03-29T07:32:54.198Z,16.17
2019-03-29T07:33:54.188Z,16.12
2019-03-29T07:34:54.215Z,16.15
2019-03-29T07:35:54.163Z,16.15
2019-03-29T07:36:54.157Z,16.12
2019-03-29T07:37:54.138Z,16.23
2019-03-29T07:38:54.138Z,16.38
2019-03-29T07:39:54.177Z,16.60
2019-03-29T07:40:54.123Z,16.71
2019-03-29T07:41:54.097Z,16.87
2019-03-29T07:42:54.089Z,17.01
2019-03-29T07:43:54.082Z,17.06
2019-03-29T07:44:54.068Z,17.23
2019-03-29T07:45:54.059Z,17.36
2019-03-29T07:46:54.063Z,17.45
2019-03-29T07:47:54.065Z,17.49
2019-03-29T07:48:54.020Z,17.51
2019-03-29T07:49:54.008Z,17.70
2019-03-29T07:50:53.998Z,17.78
2019-03-29T07:51:54.012Z,17.76
2019-03-29T07:52:53.982Z,17.86
2019-03-29T07:53:54.023Z,17.98
2019-03-29T07:54:53.996Z,18.00
2019-03-29T07:55:53.942Z,18.07
2019-03-29T07:56:53.937Z,18.22
2019-03-29T07:57:53.937Z,18.18
2019-03-29T07:58:53.927Z,18.19
2019-03-29T07:59:53.898Z,18.37
2019-03-29T08:00:53.903Z,18.40
2019-03-29T08:01:53.897Z,18.40
2019-03-29T08:02:55.195Z,18.47
2019-03-29T08:03:53.860Z,18.43
2019-03-29T08:04:53.859Z,18.52
2019-03-29T08:05:53.839Z,18.58
2019-03-29T08:06:53.826Z,18.58
2019-03-29T08:07:53.832Z,18.62
2019-03-29T08:08:53.801Z,18.68
2019-03-29T08:09:54.254Z,18.74
2019-03-29T08:10:54.290Z,18.71
2019-03-29T08:11:55.143Z,18.84
2019-03-29T08:12:53.761Z,18.88
2019-03-29T08:13:53.782Z,18.95
2019-03-29T08:14:53.748Z,18.89
2019-03-29T08:15:53.736Z,18.95
2019-03-29T08:16:53.736Z,18.89
2019-03-29T08:17:53.753Z,18.99
2019-03-29T08:18:53.720Z,19.08
2019-03-29T08:20:19.044Z,19.08
2019-03-29T08:20:54.680Z,19.08
2019-03-29T08:21:53.667Z,19.08
2019-03-29T08:22:53.663Z,19.04
2019-03-29T08:23:53.672Z,19.09
2019-03-29T08:24:53.655Z,19.04
2019-03-29T08:25:53.623Z,19.09
2019-03-29T08:26:53.613Z,19.12
2019-03-29T08:27:53.602Z,19.09
2019-03-29T08:28:53.617Z,19.12
2019-03-29T08:29:53.587Z,19.14
2019-03-29T08:30:53.591Z,19.22
2019-03-29T08:31:55.559Z,19.24
2019-03-29T08:32:53.562Z,19.30
2019-03-29T08:33:53.537Z,19.27
2019-03-29T08:34:53.531Z,19.19
2019-03-29T08:35:53.518Z,19.39
2019-03-29T08:36:53.523Z,19.39
2019-03-29T08:37:53.545Z,19.54
2019-03-29T08:38:53.479Z,19.55
2019-03-29T08:39:56.343Z,19.66
2019-03-29T08:40:53.486Z,19.73
2019-03-29T08:42:00.213Z,19.82
2019-03-29T08:42:54.441Z,19.82
2019-03-29T08:43:53.432Z,19.91
2019-03-29T08:44:53.424Z,20.06
2019-03-29T08:45:53.410Z,20.07
2019-03-29T08:46:53.436Z,20.10
2019-03-29T08:47:53.388Z,20.09
2019-03-29T08:48:53.399Z,20.26
2019-03-29T08:49:53.373Z,20.24
2019-03-29T08:50:53.377Z,20.36
2019-03-29T08:51:53.347Z,20.55
2019-03-29T08:52:53.337Z,20.59
2019-03-29T08:53:53.323Z,20.75
2019-03-29T08:54:53.338Z,20.81
2019-03-29T08:55:53.356Z,20.81
2019-03-29T08:56:53.288Z,20.85
2019-03-29T08:57:53.279Z,20.72
2019-03-29T08:59:00.909Z,20.78
2019-03-29T09:00:00.815Z,20.93
2019-03-29T09:01:00.917Z,20.97
2019-03-29T09:01:53.247Z,20.90
2019-03-29T09:03:00.762Z,20.93
2019-03-29T09:04:04.638Z,20.87
2019-03-29T09:04:54.210Z,20.97
2019-03-29T09:05:53.207Z,21.03
2019-03-29T09:06:54.300Z,21.14
2019-03-29T09:07:53.166Z,21.20
2019-03-29T09:08:53.165Z,21.22
2019-03-29T09:09:53.154Z,21.25
2019-03-29T09:10:53.154Z,21.33
2019-03-29T09:11:53.140Z,21.33
2019-03-29T09:12:53.117Z,21.42
2019-03-29T09:13:53.144Z,21.50
2019-03-29T09:14:53.099Z,21.51
2019-03-29T09:15:53.121Z,21.58
2019-03-29T09:16:53.093Z,21.61
2019-03-29T09:17:53.077Z,21.64
2019-03-29T09:18:53.062Z,21.67
2019-03-29T09:19:53.039Z,21.79
2019-03-29T09:20:53.056Z,21.79
2019-03-29T09:21:53.047Z,21.79
2019-03-29T09:22:53.006Z,21.82
2019-03-29T09:23:53.042Z,21.91
2019-03-29T09:24:52.994Z,21.92
2019-03-29T09:25:52.981Z,21.95
2019-03-29T09:26:52.993Z,21.95
2019-03-29T09:27:52.993Z,21.98
2019-03-29T09:28:52.960Z,21.96
2019-03-29T09:29:52.939Z,22.00
2019-03-29T09:30:56.219Z,22.10
2019-03-29T09:31:52.918Z,22.14
2019-03-29T09:32:52.922Z,22.10
2019-03-29T09:33:52.900Z,22.10
2019-03-29T09:34:52.925Z,22.13
2019-03-29T09:35:52.876Z,22.14
2019-03-29T09:36:52.870Z,22.10
2019-03-29T09:37:56.285Z,22.13
2019-03-29T09:38:52.864Z,22.11
2019-03-29T09:39:52.827Z,22.14
2019-03-29T09:40:58.905Z,22.15
2019-03-29T09:41:53.832Z,22.15
2019-03-29T09:43:06.643Z,22.04
2019-03-29T09:43:54.677Z,22.13
2019-03-29T09:44:52.778Z,22.08
2019-03-29T09:45:52.766Z,21.95
2019-03-29T09:46:52.764Z,21.98
2019-03-29T09:47:55.794Z,21.95
2019-03-29T09:48:52.777Z,21.92
2019-03-29T09:49:52.746Z,21.92
2019-03-29T09:50:52.716Z,21.98
2019-03-29T09:51:52.699Z,22.08
2019-03-29T09:52:52.690Z,22.04
2019-03-29T09:53:52.681Z,22.06
2019-03-29T09:54:54.191Z,22.14
2019-03-29T09:55:53.513Z,21.98
2019-03-29T09:56:52.648Z,21.93
2019-03-29T09:57:52.663Z,21.95
2019-03-29T09:58:52.632Z,22.02
2019-03-29T09:59:52.614Z,22.02
2019-03-29T10:00:52.657Z,22.00
2019-03-29T10:01:54.212Z,21.93
2019-03-29T10:02:52.591Z,21.96
2019-03-29T10:03:52.585Z,22.00
2019-03-29T10:04:52.563Z,22.04
2019-03-29T10:05:52.568Z,21.96
2019-03-29T10:06:52.591Z,21.98
2019-03-29T10:07:52.534Z,22.02
2019-03-29T10:08:53.510Z,22.06
2019-03-29T10:09:52.514Z,21.98
2019-03-29T10:10:52.500Z,21.93
2019-03-29T10:11:52.508Z,21.95
2019-03-29T10:12:52.493Z,21.96
2019-03-29T10:13:52.477Z,21.79
2019-03-29T10:14:52.487Z,21.88
2019-03-29T10:15:52.457Z,21.92
2019-03-29T10:16:52.436Z,21.98
2019-03-29T10:17:52.441Z,22.02
2019-03-29T10:18:52.415Z,21.96
2019-03-29T10:19:52.428Z,21.95
2019-03-29T10:20:52.390Z,22.02
2019-03-29T10:21:52.401Z,22.02
2019-03-29T10:22:52.371Z,21.95
2019-03-29T10:23:52.355Z,22.00
2019-03-29T10:24:52.348Z,21.98
2019-03-29T10:25:52.335Z,22.08
2019-03-29T10:26:52.366Z,22.15
2019-03-29T10:27:52.349Z,22.17
2019-03-29T10:28:52.320Z,22.11
2019-03-29T10:29:52.296Z,22.17
2019-03-29T10:30:52.289Z,22.22
2019-03-29T10:31:52.269Z,22.26
2019-03-29T10:32:55.366Z,22.23
2019-03-29T10:33:52.253Z,22.23
2019-03-29T10:34:52.239Z,22.30
2019-03-29T10:35:53.035Z,22.39
2019-03-29T10:36:52.220Z,22.36
2019-03-29T10:37:52.224Z,22.32
2019-03-29T10:38:52.232Z,22.44
2019-03-29T10:39:52.198Z,22.47
2019-03-29T10:40:52.179Z,22.45
2019-03-29T10:41:52.169Z,22.50
2019-03-29T10:42:57.978Z,22.32
2019-03-29T10:43:53.138Z,22.32
2019-03-29T10:44:52.155Z,22.36
2019-03-29T10:45:52.121Z,22.35
2019-03-29T10:46:52.108Z,22.45
2019-03-29T10:47:52.132Z,22.43
2019-03-29T10:48:52.093Z,22.45
2019-03-29T10:49:52.086Z,22.45
2019-03-29T10:50:52.071Z,22.44
2019-03-29T10:51:52.085Z,22.45
2019-03-29T10:52:52.067Z,22.38
2019-03-29T10:53:52.144Z,22.32
2019-03-29T10:54:52.030Z,22.28
2019-03-29T10:55:52.014Z,22.29
2019-03-29T10:56:52.013Z,22.30
2019-03-29T10:57:52.012Z,22.32
2019-03-29T10:58:52.006Z,22.32
2019-03-29T10:59:51.976Z,22.43
2019-03-29T11:00:51.963Z,22.44
2019-03-29T11:01:51.959Z,22.54
2019-03-29T11:02:51.945Z,22.57
2019-03-29T11:03:51.959Z,22.57
2019-03-29T11:04:51.936Z,22.62
2019-03-29T11:05:51.916Z,22.69
2019-03-29T11:06:51.895Z,22.72
2019-03-29T11:07:51.891Z,22.72
2019-03-29T11:08:51.901Z,22.81
2019-03-29T11:09:51.874Z,22.75
2019-03-29T11:10:51.853Z,22.88
2019-03-29T11:11:51.847Z,22.85
2019-03-29T11:12:51.836Z,22.76
2019-03-29T11:13:51.843Z,22.81
2019-03-29T11:14:51.837Z,22.88
2019-03-29T11:15:51.839Z,22.88
2019-03-29T11:16:51.790Z,22.96
2019-03-29T11:17:51.778Z,22.93
2019-03-29T11:18:51.774Z,23.02
2019-03-29T11:19:51.851Z,23.10
2019-03-29T11:20:51.755Z,23.13
2019-03-29T11:21:51.879Z,23.15
2019-03-29T11:22:51.731Z,23.25
2019-03-29T11:23:51.716Z,23.24
2019-03-29T11:24:51.719Z,23.23
2019-03-29T11:25:51.702Z,23.24
2019-03-29T11:26:51.686Z,23.23
2019-03-29T11:27:51.691Z,23.32
2019-03-29T11:28:51.660Z,23.36
2019-03-29T11:29:51.666Z,23.46
2019-03-29T11:30:51.646Z,23.47
2019-03-29T11:31:51.634Z,23.62
2019-03-29T11:32:51.624Z,23.71
2019-03-29T11:33:51.763Z,23.80
2019-03-29T11:34:51.615Z,23.51
2019-03-29T11:35:51.609Z,23.05
2019-03-29T11:36:52.835Z,22.88
2019-03-29T11:37:51.565Z,22.87
2019-03-29T11:38:51.558Z,22.94
2019-03-29T11:39:51.565Z,23.15
2019-03-29T11:40:51.542Z,23.23
2019-03-29T11:41:51.540Z,23.32
2019-03-29T11:42:51.515Z,23.43
2019-03-29T11:43:51.506Z,23.41
2019-03-29T11:44:51.497Z,23.50
2019-03-29T11:45:51.510Z,23.50
2019-03-29T11:46:51.490Z,23.59
2019-03-29T11:47:51.459Z,23.61
2019-03-29T11:48:51.454Z,23.63
2019-03-29T11:49:52.872Z,23.69
2019-03-29T11:50:51.436Z,23.69
2019-03-29T11:51:51.453Z,23.77
2019-03-29T11:52:51.429Z,23.76
2019-03-29T11:53:51.549Z,23.81
2019-03-29T11:54:51.387Z,23.83
2019-03-29T11:55:51.377Z,23.86
2019-03-29T11:56:51.375Z,23.84
2019-03-29T11:57:51.378Z,23.88
2019-03-29T11:58:51.365Z,23.92
2019-03-29T11:59:51.332Z,23.66
2019-03-29T12:00:51.326Z,23.47
2019-03-29T12:01:51.310Z,23.21
2019-03-29T12:02:51.314Z,22.76
2019-03-29T12:03:51.306Z,22.47
2019-03-29T12:04:51.301Z,22.30
2019-03-29T12:05:51.273Z,22.62
2019-03-29T12:06:51.262Z,22.78
2019-03-29T12:07:51.249Z,22.96
2019-03-29T12:08:51.254Z,22.98
2019-03-29T12:09:51.223Z,23.02
2019-03-29T12:10:51.278Z,23.12
2019-03-29T12:11:51.208Z,23.09
2019-03-29T12:12:51.199Z,23.23
2019-03-29T12:13:51.223Z,23.21
2019-03-29T12:14:51.175Z,23.24
2019-03-29T12:15:51.164Z,23.27
2019-03-29T12:16:51.156Z,23.24
2019-03-29T12:17:51.167Z,23.27
2019-03-29T12:18:51.142Z,23.23
2019-03-29T12:19:51.137Z,23.28
2019-03-29T12:20:54.176Z,23.20
2019-03-29T12:21:51.095Z,23.27
2019-03-29T12:22:51.090Z,23.31
2019-03-29T12:23:51.080Z,23.21
2019-03-29T12:24:51.130Z,23.32
2019-03-29T12:25:51.068Z,23.32
2019-03-29T12:26:51.048Z,23.40
2019-03-29T12:27:51.035Z,23.44
2019-03-29T12:28:51.021Z,23.43
2019-03-29T12:29:51.018Z,23.43
2019-03-29T12:30:51.035Z,23.47
2019-03-29T12:31:50.992Z,23.44
2019-03-29T12:32:50.979Z,23.48
2019-03-29T12:33:50.967Z,23.40
2019-03-29T12:34:50.975Z,23.41
2019-03-29T12:35:50.968Z,23.40
2019-03-29T12:36:50.961Z,23.43
2019-03-29T12:37:50.933Z,23.47
2019-03-29T12:38:50.923Z,23.44
2019-03-29T12:39:50.909Z,23.46
2019-03-29T12:40:50.914Z,23.56
2019-03-29T12:41:50.883Z,23.58
2019-03-29T12:42:50.889Z,23.54
2019-03-29T12:43:55.707Z,23.65
2019-03-29T12:44:51.860Z,23.61
2019-03-29T12:45:50.855Z,23.69
2019-03-29T12:46:50.832Z,23.69
2019-03-29T12:47:50.823Z,23.78
2019-03-29T12:48:50.918Z,23.78
2019-03-29T12:49:50.807Z,23.69
2019-03-29T12:50:50.813Z,23.62
2019-03-29T12:51:50.805Z,23.59
2019-03-29T12:52:50.776Z,23.65
2019-03-29T12:53:50.754Z,23.54
2019-03-29T12:54:50.775Z,23.50
2019-03-29T12:55:50.739Z,23.36
2019-03-29T12:56:50.760Z,22.94
2019-03-29T12:57:50.719Z,22.62
2019-03-29T12:58:50.721Z,22.30
2019-03-29T12:59:50.708Z,22.33
2019-03-29T13:00:50.683Z,22.53
2019-03-29T13:01:50.690Z,22.59
2019-03-29T13:02:50.664Z,22.70
2019-03-29T13:03:50.652Z,22.73
2019-03-29T13:04:50.660Z,22.81
2019-03-29T13:05:50.628Z,22.87
2019-03-29T13:06:50.634Z,22.87
2019-03-29T13:07:53.054Z,22.80
2019-03-29T13:08:50.601Z,22.84
2019-03-29T13:09:50.594Z,22.85
2019-03-29T13:10:50.593Z,22.94
2019-03-29T13:11:50.583Z,22.99
2019-03-29T13:12:50.555Z,23.02
2019-03-29T13:13:50.542Z,23.03
2019-03-29T13:14:50.533Z,23.13
2019-03-29T13:15:50.527Z,23.09
2019-03-29T13:16:50.551Z,23.15
2019-03-29T13:17:50.504Z,23.08
2019-03-29T13:18:53.616Z,23.20
2019-03-29T13:19:50.491Z,23.25
2019-03-29T13:20:50.492Z,23.21
2019-03-29T13:21:50.480Z,23.25
2019-03-29T13:22:50.474Z,23.21
2019-03-29T13:23:50.438Z,23.21
2019-03-29T13:24:50.459Z,23.31
2019-03-29T13:25:50.414Z,23.28
2019-03-29T13:26:50.410Z,23.27
2019-03-29T13:27:50.396Z,23.36
2019-03-29T13:28:50.403Z,23.36
2019-03-29T13:29:50.380Z,23.32
2019-03-29T13:30:50.388Z,23.36
2019-03-29T13:31:50.371Z,23.31
2019-03-29T13:32:50.341Z,23.27
2019-03-29T13:33:50.352Z,23.31
2019-03-29T13:34:51.431Z,23.28
2019-03-29T13:35:50.313Z,23.47
2019-03-29T13:36:50.333Z,23.47
2019-03-29T13:37:50.285Z,23.43
2019-03-29T13:38:50.276Z,23.41
2019-03-29T13:39:50.270Z,23.39
2019-03-29T13:40:50.281Z,23.36
2019-03-29T13:41:50.259Z,23.37
2019-03-29T13:42:50.238Z,23.25
2019-03-29T13:43:50.272Z,23.25
2019-03-29T13:44:50.214Z,23.24
2019-03-29T13:45:50.222Z,23.31
2019-03-29T13:46:50.208Z,23.27
2019-03-29T13:47:50.190Z,23.25
2019-03-29T13:48:50.174Z,23.28
2019-03-29T13:49:50.159Z,23.13
2019-03-29T13:50:50.190Z,23.27
2019-03-29T13:51:50.156Z,23.12
2019-03-29T13:52:50.135Z,23.12
2019-03-29T13:53:50.123Z,23.02
2019-03-29T13:54:50.123Z,23.05
2019-03-29T13:55:50.098Z,22.98
2019-03-29T13:56:50.119Z,23.03
2019-03-29T13:57:50.072Z,22.91
2019-03-29T13:58:50.064Z,22.91
2019-03-29T13:59:50.056Z,23.08
2019-03-29T14:00:50.065Z,23.03
2019-03-29T14:01:50.036Z,23.03
2019-03-29T14:02:50.042Z,23.02
2019-03-29T14:03:50.011Z,23.10
2019-03-29T14:04:49.999Z,23.08
2019-03-29T14:05:50.012Z,23.17
2019-03-29T14:06:49.980Z,23.13
2019-03-29T14:07:49.970Z,23.10
2019-03-29T14:08:49.989Z,23.09
2019-03-29T14:09:49.949Z,23.15
2019-03-29T14:10:49.938Z,23.12
2019-03-29T14:11:49.947Z,23.05
2019-03-29T14:12:49.921Z,23.03
2019-03-29T14:13:49.909Z,23.06
2019-03-29T14:14:49.906Z,23.02
2019-03-29T14:15:49.900Z,22.98
2019-03-29T14:16:49.886Z,23.00
2019-03-29T14:17:49.860Z,22.98
2019-03-29T14:18:49.852Z,22.98
2019-03-29T14:19:49.843Z,22.94
2019-03-29T14:20:49.854Z,22.96
2019-03-29T14:21:49.839Z,22.99
2019-03-29T14:22:49.809Z,22.98
2019-03-29T14:23:49.799Z,22.96
2019-03-29T14:24:49.791Z,22.99
2019-03-29T14:25:49.782Z,22.93
2019-03-29T14:26:49.777Z,22.93
2019-03-29T14:27:49.777Z,22.94
2019-03-29T14:28:49.747Z,22.93
2019-03-29T14:30:03.189Z,22.96
2019-03-29T14:30:50.733Z,22.87
2019-03-29T14:31:49.715Z,22.90
2019-03-29T14:32:49.790Z,22.94
2019-03-29T14:33:49.734Z,22.90
2019-03-29T14:34:49.703Z,22.94
2019-03-29T14:35:49.670Z,22.94
2019-03-29T14:36:49.658Z,22.94
2019-03-29T14:37:49.662Z,22.94
2019-03-29T14:38:49.646Z,22.93
2019-03-29T14:39:49.643Z,22.88
2019-03-29T14:40:49.628Z,22.93
2019-03-29T14:41:49.620Z,22.98
2019-03-29T14:42:49.596Z,22.93
2019-03-29T14:43:49.589Z,22.90
2019-03-29T14:44:52.832Z,22.87
2019-03-29T14:45:49.580Z,22.91
2019-03-29T14:46:49.559Z,22.84
2019-03-29T14:47:49.544Z,22.83
2019-03-29T14:48:49.529Z,22.81
2019-03-29T14:49:49.542Z,22.87
2019-03-29T14:50:49.511Z,22.84
2019-03-29T14:51:49.513Z,22.85
2019-03-29T14:52:49.499Z,22.81
2019-03-29T14:53:49.481Z,22.84
2019-03-29T14:54:49.475Z,22.84
2019-03-29T14:55:49.480Z,22.76
2019-03-29T14:56:49.449Z,22.76
2019-03-29T14:57:49.441Z,22.72
2019-03-29T14:58:49.445Z,22.70
2019-03-29T14:59:49.454Z,22.70
2019-03-29T15:00:49.429Z,22.69
2019-03-29T15:01:49.394Z,22.60
2019-03-29T15:02:49.383Z,22.65
2019-03-29T15:03:49.390Z,22.65
2019-03-29T15:04:49.380Z,22.60
2019-03-29T15:05:49.369Z,22.48
2019-03-29T15:06:49.356Z,22.48
2019-03-29T15:07:49.334Z,22.47
2019-03-29T15:08:49.948Z,22.38
2019-03-29T15:09:49.325Z,22.43
2019-03-29T15:10:49.299Z,22.33
2019-03-29T15:11:49.333Z,22.35
2019-03-29T15:12:49.311Z,22.33
2019-03-29T15:13:49.265Z,22.32
2019-03-29T15:14:49.255Z,22.28
2019-03-29T15:15:49.247Z,22.28
2019-03-29T15:16:49.241Z,22.22
2019-03-29T15:17:49.242Z,22.20
2019-03-29T15:18:49.226Z,22.14
2019-03-29T15:19:49.217Z,22.14
2019-03-29T15:20:53.664Z,22.13
2019-03-29T15:21:49.179Z,22.08
2019-03-29T15:22:49.174Z,22.17
2019-03-29T15:23:49.196Z,22.11
2019-03-29T15:24:49.193Z,22.00
2019-03-29T15:25:49.136Z,21.96
2019-03-29T15:26:49.128Z,21.99
2019-03-29T15:27:49.119Z,21.99
2019-03-29T15:28:49.112Z,21.99
2019-03-29T15:29:49.120Z,21.91
2019-03-29T15:30:52.201Z,21.88
2019-03-29T15:31:49.076Z,21.88
2019-03-29T15:32:49.064Z,21.82
2019-03-29T15:33:49.053Z,21.79
2019-03-29T15:34:49.064Z,21.76
2019-03-29T15:35:49.052Z,21.64
2019-03-29T15:36:49.028Z,21.70
2019-03-29T15:37:49.012Z,21.66
2019-03-29T15:38:49.004Z,21.52
2019-03-29T15:39:48.989Z,21.64
2019-03-29T15:40:49.003Z,21.52
2019-03-29T15:41:48.971Z,21.54
2019-03-29T15:42:48.971Z,21.45
2019-03-29T15:43:48.946Z,21.45
2019-03-29T15:44:48.937Z,21.37
2019-03-29T15:45:48.943Z,21.37
2019-03-29T15:46:48.916Z,21.25
2019-03-29T15:47:48.925Z,21.17
2019-03-29T15:48:48.939Z,21.25
2019-03-29T15:49:55.988Z,21.11
2019-03-29T15:50:49.893Z,21.15
2019-03-29T15:51:48.860Z,21.06
2019-03-29T15:52:48.850Z,21.00
2019-03-29T15:53:48.839Z,21.02
2019-03-29T15:54:48.832Z,21.07
2019-03-29T15:55:48.822Z,20.97
2019-03-29T15:56:48.825Z,20.88
2019-03-29T15:57:48.820Z,20.95
2019-03-29T15:58:48.787Z,20.78
2019-03-29T15:59:48.781Z,20.90
2019-03-29T16:00:48.789Z,20.77
2019-03-29T16:01:48.761Z,20.69
2019-03-29T16:02:48.749Z,20.66
2019-03-29T16:03:48.747Z,20.69
2019-03-29T16:04:48.724Z,20.69
2019-03-29T16:05:48.731Z,20.60
2019-03-29T16:06:48.700Z,20.56
2019-03-29T16:07:48.711Z,20.50
2019-03-29T16:08:48.697Z,20.43
2019-03-29T16:09:49.075Z,20.43
2019-03-29T16:10:48.663Z,20.31
2019-03-29T16:11:48.665Z,20.39
2019-03-29T16:12:48.647Z,20.32
2019-03-29T16:13:48.650Z,20.21
2019-03-29T16:14:48.635Z,20.25
2019-03-29T16:15:48.607Z,20.11
2019-03-29T16:16:48.595Z,20.10
2019-03-29T16:17:48.586Z,20.13
2019-03-29T16:18:48.573Z,20.10
2019-03-29T16:19:48.606Z,20.07
2019-03-29T16:20:48.557Z,20.07
2019-03-29T16:21:48.545Z,19.94
2019-03-29T16:22:48.536Z,19.91
2019-03-29T16:23:48.521Z,19.84
2019-03-29T16:24:48.511Z,19.79
2019-03-29T16:25:48.526Z,19.71
2019-03-29T16:26:48.486Z,19.71
2019-03-29T16:27:48.482Z,19.62
2019-03-29T16:28:48.469Z,19.54
2019-03-29T16:29:48.457Z,19.63
2019-03-29T16:30:48.460Z,19.49
2019-03-29T16:31:48.443Z,19.54
2019-03-29T16:32:48.427Z,19.51
2019-03-29T16:33:48.416Z,19.36
2019-03-29T16:34:50.664Z,19.31
2019-03-29T16:35:48.394Z,19.37
2019-03-29T16:36:48.405Z,19.31
2019-03-29T16:37:57.027Z,19.21
2019-03-29T16:38:49.363Z,19.18
2019-03-29T16:39:48.385Z,19.12
2019-03-29T16:40:48.344Z,19.08
2019-03-29T16:41:48.333Z,18.95
2019-03-29T16:42:48.339Z,18.89
2019-03-29T16:43:48.311Z,18.89
2019-03-29T16:44:48.296Z,18.80
2019-03-29T16:45:48.562Z,18.73
2019-03-29T16:46:48.294Z,18.66
2019-03-29T16:47:48.268Z,18.70
2019-03-29T16:48:48.279Z,18.58
2019-03-29T16:49:48.253Z,18.44
2019-03-29T16:50:48.235Z,18.49
2019-03-29T16:51:48.228Z,18.35
2019-03-29T16:52:48.213Z,18.31
2019-03-29T16:53:48.210Z,18.22
2019-03-29T16:54:48.211Z,18.19
2019-03-29T16:55:48.191Z,18.22
2019-03-29T16:56:48.166Z,18.15
2019-03-29T16:57:48.158Z,18.00
2019-03-29T16:58:48.144Z,18.07
2019-03-29T16:59:48.155Z,18.00
2019-03-29T17:00:48.139Z,17.87
2019-03-29T17:01:51.146Z,17.83
2019-03-29T17:02:48.100Z,17.80
2019-03-29T17:03:48.097Z,17.76
2019-03-29T17:04:48.102Z,17.72
2019-03-29T17:05:48.072Z,17.67
2019-03-29T17:06:48.075Z,17.65
2019-03-29T17:07:48.049Z,17.51
2019-03-29T17:08:48.038Z,17.49
2019-03-29T17:09:48.043Z,17.56
2019-03-29T17:10:48.019Z,17.46
2019-03-29T17:11:48.025Z,17.49
2019-03-29T17:12:48.004Z,17.44
2019-03-29T17:13:47.985Z,17.39
2019-03-29T17:14:47.978Z,17.24
2019-03-29T17:16:00.750Z,17.31
2019-03-29T17:16:48.995Z,17.29
2019-03-29T17:17:47.944Z,17.20
2019-03-29T17:18:47.961Z,17.15
2019-03-29T17:19:47.919Z,17.19
2019-03-29T17:20:47.939Z,17.11
2019-03-29T17:21:47.932Z,17.01
2019-03-29T17:22:47.887Z,16.99
2019-03-29T17:23:47.886Z,16.90
2019-03-29T17:24:57.017Z,16.93
2019-03-29T17:25:48.857Z,16.91
2019-03-29T17:26:47.876Z,16.75
2019-03-29T17:27:47.833Z,16.76
2019-03-29T17:28:47.823Z,16.72
2019-03-29T17:29:47.820Z,16.60
2019-03-29T17:30:47.817Z,16.58